sensor_id;sensor_type;location;lat;lon;timestamp;temperature;humidity
12967;DHT22;6548;49.996;8.238;2023-11-21T00:00:25;9.20;99.90
12967;DHT22;6548;49.996;8.238;2023-11-21T00:02:51;9.30;99.90
12967;DHT22;6548;49.996;8.238;2023-11-21T00:05:17;9.20;99.90
12967;DHT22;6548;49.996;8.238;2023-11-21T00:07:43;9.30;99.90
12967;DHT22;6548;49.996;8.238;2023-11-21T00:10:09;9.20;99.90
12967;DHT22;6548;49.996;8.238;2023-11-21T00:12:36;9.20;99.90
12967;DHT22;6548;49.996;8.238;2023-11-21T00:15:02;9.20;99.90
12967;DHT22;6548;49.996;8.238;2023-11-21T00:17:28;9.20;99.90
12967;DHT22;6548;49.996;8.238;2023-11-21T00:19:54;9.20;99.90
12967;DHT22;6548;49.996;8.238;2023-11-21T00:22:20;9.20;99.90
12967;DHT22;6548;49.996;8.238;2023-11-21T00:24:46;9.20;99.90
12967;DHT22;6548;49.996;8.238;2023-11-21T00:27:12;9.20;99.90
12967;DHT22;6548;49.996;8.238;2023-11-21T00:29:38;9.20;99.90
12967;DHT22;6548;49.996;8.238;2023-11-21T00:32:06;9.30;99.90
12967;DHT22;6548;49.996;8.238;2023-11-21T00:34:32;9.30;99.90
12967;DHT22;6548;49.996;8.238;2023-11-21T00:36:58;9.20;99.90
12967;DHT22;6548;49.996;8.238;2023-11-21T00:39:24;9.30;99.90
12967;DHT22;6548;49.996;8.238;2023-11-21T00:41:51;9.30;99.90
12967;DHT22;6548;49.996;8.238;2023-11-21T00:44:16;9.30;99.90
12967;DHT22;6548;49.996;8.238;2023-11-21T00:46:42;9.30;99.90
12967;DHT22;6548;49.996;8.238;2023-11-21T00:49:07;9.30;99.90
12967;DHT22;6548;49.996;8.238;2023-11-21T00:51:33;9.30;99.90
12967;DHT22;6548;49.996;8.238;2023-11-21T00:53:59;9.30;99.90
12967;DHT22;6548;49.996;8.238;2023-11-21T00:56:25;9.30;99.90
12967;DHT22;6548;49.996;8.238;2023-11-21T00:58:50;9.30;99.90
12967;DHT22;6548;49.996;8.238;2023-11-21T01:01:20;9.40;99.90
12967;DHT22;6548;49.996;8.238;2023-11-21T01:03:48;9.40;99.90
12967;DHT22;6548;49.996;8.238;2023-11-21T01:06:14;9.30;99.90
12967;DHT22;6548;49.996;8.238;2023-11-21T01:08:40;9.30;99.90
12967;DHT22;6548;49.996;8.238;2023-11-21T01:11:05;9.40;99.90
12967;DHT22;6548;49.996;8.238;2023-11-21T01:13:33;9.40;99.90
12967;DHT22;6548;49.996;8.238;2023-11-21T01:16:00;9.40;99.90
12967;DHT22;6548;49.996;8.238;2023-11-21T01:18:26;9.40;99.90
12967;DHT22;6548;49.996;8.238;2023-11-21T01:20:52;9.30;99.90
12967;DHT22;6548;49.996;8.238;2023-11-21T01:23:19;9.30;99.90
12967;DHT22;6548;49.996;8.238;2023-11-21T01:25:44;9.30;99.90
12967;DHT22;6548;49.996;8.238;2023-11-21T01:28:10;9.30;99.90
12967;DHT22;6548;49.996;8.238;2023-11-21T01:30:36;9.30;99.90
12967;DHT22;6548;49.996;8.238;2023-11-21T01:33:02;9.40;99.90
12967;DHT22;6548;49.996;8.238;2023-11-21T01:35:28;9.40;99.90
12967;DHT22;6548;49.996;8.238;2023-11-21T01:37:53;9.40;99.90
12967;DHT22;6548;49.996;8.238;2023-11-21T01:40:19;9.40;99.90
12967;DHT22;6548;49.996;8.238;2023-11-21T01:42:45;9.30;99.90
12967;DHT22;6548;49.996;8.238;2023-11-21T01:45:12;9.30;99.90
12967;DHT22;6548;49.996;8.238;2023-11-21T01:47:38;9.30;99.90
12967;DHT22;6548;49.996;8.238;2023-11-21T01:50:04;9.30;99.90
12967;DHT22;6548;49.996;8.238;2023-11-21T01:52:32;9.30;99.90
12967;DHT22;6548;49.996;8.238;2023-11-21T01:54:59;9.30;99.90
12967;DHT22;6548;49.996;8.238;2023-11-21T01:57:25;9.20;99.90
12967;DHT22;6548;49.996;8.238;2023-11-21T01:59:53;9.30;99.90
12967;DHT22;6548;49.996;8.238;2023-11-21T02:02:19;9.30;99.90
12967;DHT22;6548;49.996;8.238;2023-11-21T02:04:45;9.30;99.90
12967;DHT22;6548;49.996;8.238;2023-11-21T02:07:11;9.30;99.90
12967;DHT22;6548;49.996;8.238;2023-11-21T02:09:36;9.30;99.90
12967;DHT22;6548;49.996;8.238;2023-11-21T02:12:08;9.40;99.90
12967;DHT22;6548;49.996;8.238;2023-11-21T02:14:35;9.40;99.90
12967;DHT22;6548;49.996;8.238;2023-11-21T02:17:02;9.40;99.90
12967;DHT22;6548;49.996;8.238;2023-11-21T02:19:28;9.40;99.90
12967;DHT22;6548;49.996;8.238;2023-11-21T02:21:56;9.50;99.90
12967;DHT22;6548;49.996;8.238;2023-11-21T02:24:24;9.40;99.90
12967;DHT22;6548;49.996;8.238;2023-11-21T02:26:51;9.40;99.90
12967;DHT22;6548;49.996;8.238;2023-11-21T02:29:20;9.40;99.90
12967;DHT22;6548;49.996;8.238;2023-11-21T02:31:54;9.40;99.90
12967;DHT22;6548;49.996;8.238;2023-11-21T02:34:20;9.30;99.90
12967;DHT22;6548;49.996;8.238;2023-11-21T02:36:46;9.30;99.90
12967;DHT22;6548;49.996;8.238;2023-11-21T02:39:14;9.20;99.90
12967;DHT22;6548;49.996;8.238;2023-11-21T02:41:40;9.30;99.90
12967;DHT22;6548;49.996;8.238;2023-11-21T02:44:06;9.30;99.90
12967;DHT22;6548;49.996;8.238;2023-11-21T02:46:33;9.30;99.90
12967;DHT22;6548;49.996;8.238;2023-11-21T02:49:00;9.20;99.90
12967;DHT22;6548;49.996;8.238;2023-11-21T02:51:26;9.20;99.90
12967;DHT22;6548;49.996;8.238;2023-11-21T02:53:51;9.20;99.90
12967;DHT22;6548;49.996;8.238;2023-11-21T02:56:17;9.10;99.90
12967;DHT22;6548;49.996;8.238;2023-11-21T02:58:43;9.10;99.90
12967;DHT22;6548;49.996;8.238;2023-11-21T03:01:09;9.10;99.90
12967;DHT22;6548;49.996;8.238;2023-11-21T03:03:39;9.00;99.90
12967;DHT22;6548;49.996;8.238;2023-11-21T03:06:06;9.00;99.90
12967;DHT22;6548;49.996;8.238;2023-11-21T03:08:32;9.00;99.90
12967;DHT22;6548;49.996;8.238;2023-11-21T03:10:58;9.00;99.90
12967;DHT22;6548;49.996;8.238;2023-11-21T03:13:23;9.10;99.90
12967;DHT22;6548;49.996;8.238;2023-11-21T03:15:49;9.00;99.90
12967;DHT22;6548;49.996;8.238;2023-11-21T03:18:15;9.00;99.90
12967;DHT22;6548;49.996;8.238;2023-11-21T03:20:40;9.00;99.90
12967;DHT22;6548;49.996;8.238;2023-11-21T03:23:06;9.00;99.90
12967;DHT22;6548;49.996;8.238;2023-11-21T03:25:32;9.00;99.90
12967;DHT22;6548;49.996;8.238;2023-11-21T03:27:57;9.00;99.90
12967;DHT22;6548;49.996;8.238;2023-11-21T03:30:23;8.90;99.90
12967;DHT22;6548;49.996;8.238;2023-11-21T03:32:49;8.90;99.90
12967;DHT22;6548;49.996;8.238;2023-11-21T03:35:14;8.80;99.90
12967;DHT22;6548;49.996;8.238;2023-11-21T03:37:40;8.80;99.90
12967;DHT22;6548;49.996;8.238;2023-11-21T03:40:07;8.70;99.90
12967;DHT22;6548;49.996;8.238;2023-11-21T03:42:34;8.70;99.90
12967;DHT22;6548;49.996;8.238;2023-11-21T03:45:00;8.60;99.90
12967;DHT22;6548;49.996;8.238;2023-11-21T03:47:27;8.60;99.90
12967;DHT22;6548;49.996;8.238;2023-11-21T03:49:53;8.60;99.90
12967;DHT22;6548;49.996;8.238;2023-11-21T03:52:19;8.60;99.90
12967;DHT22;6548;49.996;8.238;2023-11-21T03:54:44;8.50;99.90
12967;DHT22;6548;49.996;8.238;2023-11-21T03:57:11;8.50;99.90
12967;DHT22;6548;49.996;8.238;2023-11-21T03:59:40;8.50;99.90
12967;DHT22;6548;49.996;8.238;2023-11-21T04:02:06;8.50;99.90
12967;DHT22;6548;49.996;8.238;2023-11-21T04:04:33;8.50;99.90
12967;DHT22;6548;49.996;8.238;2023-11-21T04:06:59;8.50;99.90
12967;DHT22;6548;49.996;8.238;2023-11-21T04:09:24;8.60;99.90
12967;DHT22;6548;49.996;8.238;2023-11-21T04:11:51;8.60;99.90
12967;DHT22;6548;49.996;8.238;2023-11-21T04:14:17;8.60;99.90
12967;DHT22;6548;49.996;8.238;2023-11-21T04:16:42;8.60;99.90
12967;DHT22;6548;49.996;8.238;2023-11-21T04:19:08;8.70;99.90
12967;DHT22;6548;49.996;8.238;2023-11-21T04:21:40;8.70;99.90
12967;DHT22;6548;49.996;8.238;2023-11-21T04:24:06;8.70;99.90
12967;DHT22;6548;49.996;8.238;2023-11-21T04:26:32;8.70;99.90
12967;DHT22;6548;49.996;8.238;2023-11-21T04:28:58;8.80;99.90
12967;DHT22;6548;49.996;8.238;2023-11-21T04:31:24;8.80;99.90
12967;DHT22;6548;49.996;8.238;2023-11-21T04:33:49;8.80;99.90
12967;DHT22;6548;49.996;8.238;2023-11-21T04:36:15;8.90;99.90
12967;DHT22;6548;49.996;8.238;2023-11-21T04:38:40;8.80;99.90
12967;DHT22;6548;49.996;8.238;2023-11-21T04:41:06;8.90;99.90
12967;DHT22;6548;49.996;8.238;2023-11-21T04:43:32;8.90;99.90
12967;DHT22;6548;49.996;8.238;2023-11-21T04:45:57;8.90;99.90
12967;DHT22;6548;49.996;8.238;2023-11-21T04:48:23;8.90;99.90
12967;DHT22;6548;49.996;8.238;2023-11-21T04:50:49;8.90;99.90
12967;DHT22;6548;49.996;8.238;2023-11-21T04:53:14;8.90;99.90
12967;DHT22;6548;49.996;8.238;2023-11-21T04:55:40;8.90;99.90
12967;DHT22;6548;49.996;8.238;2023-11-21T04:58:06;8.90;99.90
12967;DHT22;6548;49.996;8.238;2023-11-21T05:00:33;8.90;99.90
12967;DHT22;6548;49.996;8.238;2023-11-21T05:02:59;8.90;99.90
12967;DHT22;6548;49.996;8.238;2023-11-21T05:05:26;8.90;99.90
12967;DHT22;6548;49.996;8.238;2023-11-21T05:07:52;8.90;99.90
12967;DHT22;6548;49.996;8.238;2023-11-21T05:10:19;8.90;99.90
12967;DHT22;6548;49.996;8.238;2023-11-21T05:12:45;8.90;99.90
12967;DHT22;6548;49.996;8.238;2023-11-21T05:15:14;8.90;99.90
12967;DHT22;6548;49.996;8.238;2023-11-21T05:17:40;8.90;99.90
12967;DHT22;6548;49.996;8.238;2023-11-21T05:20:16;8.90;99.90
12967;DHT22;6548;49.996;8.238;2023-11-21T05:22:49;8.90;99.90
12967;DHT22;6548;49.996;8.238;2023-11-21T05:25:14;8.90;99.90
12967;DHT22;6548;49.996;8.238;2023-11-21T05:27:40;8.90;99.90
12967;DHT22;6548;49.996;8.238;2023-11-21T05:30:06;8.90;99.90
12967;DHT22;6548;49.996;8.238;2023-11-21T05:32:33;8.90;99.90
12967;DHT22;6548;49.996;8.238;2023-11-21T05:34:59;8.90;99.90
12967;DHT22;6548;49.996;8.238;2023-11-21T05:37:24;8.90;99.90
12967;DHT22;6548;49.996;8.238;2023-11-21T05:39:55;8.90;99.90
12967;DHT22;6548;49.996;8.238;2023-11-21T05:42:23;8.90;99.90
12967;DHT22;6548;49.996;8.238;2023-11-21T05:44:49;8.90;99.90
12967;DHT22;6548;49.996;8.238;2023-11-21T05:47:15;8.80;99.90
12967;DHT22;6548;49.996;8.238;2023-11-21T05:49:40;8.80;99.90
12967;DHT22;6548;49.996;8.238;2023-11-21T05:52:06;8.80;99.90
12967;DHT22;6548;49.996;8.238;2023-11-21T05:54:32;8.80;99.90
12967;DHT22;6548;49.996;8.238;2023-11-21T05:56:58;8.80;99.90
12967;DHT22;6548;49.996;8.238;2023-11-21T05:59:23;8.80;99.90
12967;DHT22;6548;49.996;8.238;2023-11-21T06:01:49;8.80;99.90
12967;DHT22;6548;49.996;8.238;2023-11-21T06:04:14;8.80;99.90
12967;DHT22;6548;49.996;8.238;2023-11-21T06:06:40;8.80;99.90
12967;DHT22;6548;49.996;8.238;2023-11-21T06:09:07;8.90;99.90
12967;DHT22;6548;49.996;8.238;2023-11-21T06:11:34;8.80;99.90
12967;DHT22;6548;49.996;8.238;2023-11-21T06:14:00;8.90;99.90
12967;DHT22;6548;49.996;8.238;2023-11-21T06:16:26;8.80;99.90
12967;DHT22;6548;49.996;8.238;2023-11-21T06:18:53;8.90;99.90
12967;DHT22;6548;49.996;8.238;2023-11-21T06:21:18;8.90;99.90
12967;DHT22;6548;49.996;8.238;2023-11-21T06:23:44;8.90;99.90
12967;DHT22;6548;49.996;8.238;2023-11-21T06:26:09;8.80;99.90
12967;DHT22;6548;49.996;8.238;2023-11-21T06:28:35;8.90;99.90
12967;DHT22;6548;49.996;8.238;2023-11-21T06:31:04;8.90;99.90
12967;DHT22;6548;49.996;8.238;2023-11-21T06:33:34;8.90;99.90
12967;DHT22;6548;49.996;8.238;2023-11-21T06:36:00;8.90;99.90
12967;DHT22;6548;49.996;8.238;2023-11-21T06:38:28;8.90;99.90
12967;DHT22;6548;49.996;8.238;2023-11-21T06:40:56;8.90;99.90
12967;DHT22;6548;49.996;8.238;2023-11-21T06:43:22;8.90;99.90
12967;DHT22;6548;49.996;8.238;2023-11-21T06:45:47;8.90;99.90
12967;DHT22;6548;49.996;8.238;2023-11-21T06:48:13;8.90;99.90
12967;DHT22;6548;49.996;8.238;2023-11-21T06:50:38;8.90;99.90
12967;DHT22;6548;49.996;8.238;2023-11-21T06:53:04;8.90;99.90
12967;DHT22;6548;49.996;8.238;2023-11-21T06:55:32;8.90;99.90
12967;DHT22;6548;49.996;8.238;2023-11-21T06:57:57;8.90;99.90
12967;DHT22;6548;49.996;8.238;2023-11-21T07:00:23;8.90;99.90
12967;DHT22;6548;49.996;8.238;2023-11-21T07:02:49;8.90;99.90
12967;DHT22;6548;49.996;8.238;2023-11-21T07:05:14;8.90;99.90
12967;DHT22;6548;49.996;8.238;2023-11-21T07:07:40;8.90;99.90
12967;DHT22;6548;49.996;8.238;2023-11-21T07:10:06;8.90;99.90
12967;DHT22;6548;49.996;8.238;2023-11-21T07:12:33;8.90;99.90
12967;DHT22;6548;49.996;8.238;2023-11-21T07:14:59;8.90;99.90
12967;DHT22;6548;49.996;8.238;2023-11-21T07:17:25;8.90;99.90
12967;DHT22;6548;49.996;8.238;2023-11-21T07:19:50;8.90;99.90
12967;DHT22;6548;49.996;8.238;2023-11-21T07:22:16;9.00;99.90
12967;DHT22;6548;49.996;8.238;2023-11-21T07:24:49;9.00;99.90
12967;DHT22;6548;49.996;8.238;2023-11-21T07:27:16;9.00;99.90
12967;DHT22;6548;49.996;8.238;2023-11-21T07:29:42;9.10;99.90
12967;DHT22;6548;49.996;8.238;2023-11-21T07:32:07;9.10;99.90
12967;DHT22;6548;49.996;8.238;2023-11-21T07:34:35;9.10;99.90
12967;DHT22;6548;49.996;8.238;2023-11-21T07:37:01;9.20;99.90
12967;DHT22;6548;49.996;8.238;2023-11-21T07:39:27;9.10;99.90
12967;DHT22;6548;49.996;8.238;2023-11-21T07:41:52;9.20;99.90
12967;DHT22;6548;49.996;8.238;2023-11-21T07:44:18;9.20;99.90
12967;DHT22;6548;49.996;8.238;2023-11-21T07:46:45;9.20;99.90
12967;DHT22;6548;49.996;8.238;2023-11-21T07:49:10;9.20;99.90
12967;DHT22;6548;49.996;8.238;2023-11-21T07:51:36;9.20;99.90
12967;DHT22;6548;49.996;8.238;2023-11-21T07:54:02;9.30;99.90
12967;DHT22;6548;49.996;8.238;2023-11-21T07:56:27;9.40;99.90
12967;DHT22;6548;49.996;8.238;2023-11-21T07:58:53;9.40;99.90
12967;DHT22;6548;49.996;8.238;2023-11-21T08:01:19;9.40;99.90
12967;DHT22;6548;49.996;8.238;2023-11-21T08:03:44;9.40;99.90
12967;DHT22;6548;49.996;8.238;2023-11-21T08:06:10;9.40;99.90
12967;DHT22;6548;49.996;8.238;2023-11-21T08:08:35;9.50;99.90
12967;DHT22;6548;49.996;8.238;2023-11-21T08:11:01;9.40;99.90
12967;DHT22;6548;49.996;8.238;2023-11-21T08:13:29;9.50;99.90
12967;DHT22;6548;49.996;8.238;2023-11-21T08:15:58;9.50;99.90
12967;DHT22;6548;49.996;8.238;2023-11-21T08:18:28;9.50;99.90
12967;DHT22;6548;49.996;8.238;2023-11-21T08:20:54;9.50;99.90
12967;DHT22;6548;49.996;8.238;2023-11-21T08:23:20;9.60;99.90
12967;DHT22;6548;49.996;8.238;2023-11-21T08:25:46;9.60;99.90
12967;DHT22;6548;49.996;8.238;2023-11-21T08:28:12;9.60;99.90
12967;DHT22;6548;49.996;8.238;2023-11-21T08:30:39;9.60;99.90
12967;DHT22;6548;49.996;8.238;2023-11-21T08:33:07;9.60;99.90
12967;DHT22;6548;49.996;8.238;2023-11-21T08:35:34;9.60;99.90
12967;DHT22;6548;49.996;8.238;2023-11-21T08:38:00;9.60;99.90
12967;DHT22;6548;49.996;8.238;2023-11-21T08:40:25;9.60;99.90
12967;DHT22;6548;49.996;8.238;2023-11-21T08:42:51;9.60;99.90
12967;DHT22;6548;49.996;8.238;2023-11-21T08:45:18;9.60;99.90
12967;DHT22;6548;49.996;8.238;2023-11-21T08:47:44;9.70;99.90
12967;DHT22;6548;49.996;8.238;2023-11-21T08:50:10;9.80;99.90
12967;DHT22;6548;49.996;8.238;2023-11-21T08:52:37;9.80;99.90
12967;DHT22;6548;49.996;8.238;2023-11-21T08:55:04;9.80;99.90
12967;DHT22;6548;49.996;8.238;2023-11-21T08:57:34;9.80;99.90
12967;DHT22;6548;49.996;8.238;2023-11-21T09:00:00;9.80;99.90
12967;DHT22;6548;49.996;8.238;2023-11-21T09:02:26;9.80;99.90
12967;DHT22;6548;49.996;8.238;2023-11-21T09:04:52;9.80;99.90
12967;DHT22;6548;49.996;8.238;2023-11-21T09:07:18;9.80;99.90
12967;DHT22;6548;49.996;8.238;2023-11-21T09:09:46;9.90;99.90
12967;DHT22;6548;49.996;8.238;2023-11-21T09:12:11;9.90;99.90
12967;DHT22;6548;49.996;8.238;2023-11-21T09:14:37;9.90;99.90
12967;DHT22;6548;49.996;8.238;2023-11-21T09:17:03;10.00;99.90
12967;DHT22;6548;49.996;8.238;2023-11-21T09:19:29;10.10;99.90
12967;DHT22;6548;49.996;8.238;2023-11-21T09:21:55;10.20;99.90
12967;DHT22;6548;49.996;8.238;2023-11-21T09:24:22;10.30;99.90
12967;DHT22;6548;49.996;8.238;2023-11-21T09:26:48;10.30;99.90
12967;DHT22;6548;49.996;8.238;2023-11-21T09:29:13;10.30;99.90
12967;DHT22;6548;49.996;8.238;2023-11-21T09:31:39;10.30;99.90
12967;DHT22;6548;49.996;8.238;2023-11-21T09:34:05;10.40;99.90
12967;DHT22;6548;49.996;8.238;2023-11-21T09:36:31;10.40;99.90
12967;DHT22;6548;49.996;8.238;2023-11-21T09:38:58;10.40;99.90
12967;DHT22;6548;49.996;8.238;2023-11-21T09:44:06;10.50;99.90
12967;DHT22;6548;49.996;8.238;2023-11-21T09:46:37;10.50;99.90
12967;DHT22;6548;49.996;8.238;2023-11-21T09:49:06;10.60;99.90
12967;DHT22;6548;49.996;8.238;2023-11-21T09:51:37;10.60;99.90
12967;DHT22;6548;49.996;8.238;2023-11-21T09:54:06;10.70;99.90
12967;DHT22;6548;49.996;8.238;2023-11-21T09:56:34;10.70;99.90
12967;DHT22;6548;49.996;8.238;2023-11-21T09:59:01;10.80;99.90
12967;DHT22;6548;49.996;8.238;2023-11-21T10:01:32;10.90;99.90
12967;DHT22;6548;49.996;8.238;2023-11-21T10:03:58;11.00;99.90
12967;DHT22;6548;49.996;8.238;2023-11-21T10:06:26;11.10;99.90
12967;DHT22;6548;49.996;8.238;2023-11-21T10:08:53;11.00;99.90
12967;DHT22;6548;49.996;8.238;2023-11-21T10:11:24;11.10;99.90
12967;DHT22;6548;49.996;8.238;2023-11-21T10:13:54;11.20;99.90
12967;DHT22;6548;49.996;8.238;2023-11-21T10:16:20;11.30;99.90
12967;DHT22;6548;49.996;8.238;2023-11-21T10:18:52;11.40;99.90
12967;DHT22;6548;49.996;8.238;2023-11-21T10:21:21;11.60;99.90
12967;DHT22;6548;49.996;8.238;2023-11-21T10:23:47;11.60;99.90
12967;DHT22;6548;49.996;8.238;2023-11-21T10:26:13;11.80;99.90
12967;DHT22;6548;49.996;8.238;2023-11-21T10:29:02;12.10;99.90
12967;DHT22;6548;49.996;8.238;2023-11-21T10:31:31;12.70;99.90
12967;DHT22;6548;49.996;8.238;2023-11-21T10:34:12;14.40;99.90
12967;DHT22;6548;49.996;8.238;2023-11-21T10:36:38;15.60;99.90
12967;DHT22;6548;49.996;8.238;2023-11-21T10:39:04;15.90;99.90
12967;DHT22;6548;49.996;8.238;2023-11-21T10:41:29;16.20;99.90
12967;DHT22;6548;49.996;8.238;2023-11-21T10:43:55;19.30;99.90
12967;DHT22;6548;49.996;8.238;2023-11-21T10:46:21;22.40;99.90
12967;DHT22;6548;49.996;8.238;2023-11-21T10:48:53;24.60;99.90
12967;DHT22;6548;49.996;8.238;2023-11-21T10:51:20;25.10;99.90
12967;DHT22;6548;49.996;8.238;2023-11-21T10:53:46;25.90;95.40
12967;DHT22;6548;49.996;8.238;2023-11-21T10:56:14;26.40;90.10
12967;DHT22;6548;49.996;8.238;2023-11-21T10:58:45;26.20;86.00
12967;DHT22;6548;49.996;8.238;2023-11-21T11:01:11;25.00;88.10
12967;DHT22;6548;49.996;8.238;2023-11-21T11:03:40;23.90;89.90
12967;DHT22;6548;49.996;8.238;2023-11-21T11:06:07;22.00;92.80
12967;DHT22;6548;49.996;8.238;2023-11-21T11:08:41;20.10;97.60
12967;DHT22;6548;49.996;8.238;2023-11-21T11:11:10;19.30;99.90
12967;DHT22;6548;49.996;8.238;2023-11-21T11:13:37;20.40;99.90
12967;DHT22;6548;49.996;8.238;2023-11-21T11:16:03;22.90;99.60
12967;DHT22;6548;49.996;8.238;2023-11-21T11:18:33;23.00;96.20
12967;DHT22;6548;49.996;8.238;2023-11-21T11:27:01;19.40;99.90
12967;DHT22;6548;49.996;8.238;2023-11-21T11:29:45;19.50;99.90
12967;DHT22;6548;49.996;8.238;2023-11-21T11:32:29;19.40;99.90
12967;DHT22;6548;49.996;8.238;2023-11-21T11:35:28;19.90;99.90
12967;DHT22;6548;49.996;8.238;2023-11-21T11:37:55;19.60;99.90
12967;DHT22;6548;49.996;8.238;2023-11-21T11:40:22;18.60;99.90
12967;DHT22;6548;49.996;8.238;2023-11-21T11:42:58;17.00;99.90
12967;DHT22;6548;49.996;8.238;2023-11-21T11:45:26;16.10;99.90
12967;DHT22;6548;49.996;8.238;2023-11-21T11:47:57;15.50;99.90
12967;DHT22;6548;49.996;8.238;2023-11-21T11:50:22;15.20;99.90
12967;DHT22;6548;49.996;8.238;2023-11-21T11:52:54;14.90;99.90
12967;DHT22;6548;49.996;8.238;2023-11-21T11:55:24;14.70;99.90
12967;DHT22;6548;49.996;8.238;2023-11-21T11:57:52;14.70;99.90
12967;DHT22;6548;49.996;8.238;2023-11-21T12:00:35;14.90;99.90
12967;DHT22;6548;49.996;8.238;2023-11-21T12:03:06;14.90;99.90
12967;DHT22;6548;49.996;8.238;2023-11-21T12:05:33;14.80;99.90
12967;DHT22;6548;49.996;8.238;2023-11-21T12:08:05;14.60;99.90
12967;DHT22;6548;49.996;8.238;2023-11-21T12:10:33;14.50;99.90
12967;DHT22;6548;49.996;8.238;2023-11-21T12:13:00;14.40;99.90
12967;DHT22;6548;49.996;8.238;2023-11-21T12:15:27;14.10;99.90
12967;DHT22;6548;49.996;8.238;2023-11-21T12:17:55;13.80;99.90
12967;DHT22;6548;49.996;8.238;2023-11-21T12:20:23;13.30;99.90
12967;DHT22;6548;49.996;8.238;2023-11-21T12:22:52;13.10;99.90
12967;DHT22;6548;49.996;8.238;2023-11-21T12:25:28;12.80;99.90
12967;DHT22;6548;49.996;8.238;2023-11-21T12:27:55;12.60;99.90
12967;DHT22;6548;49.996;8.238;2023-11-21T12:30:23;12.50;99.90
12967;DHT22;6548;49.996;8.238;2023-11-21T12:32:51;12.30;99.90
12967;DHT22;6548;49.996;8.238;2023-11-21T12:35:21;12.30;99.90
12967;DHT22;6548;49.996;8.238;2023-11-21T12:37:48;12.20;99.90
12967;DHT22;6548;49.996;8.238;2023-11-21T12:40:15;12.10;99.90
12967;DHT22;6548;49.996;8.238;2023-11-21T12:43:01;12.00;99.90
12967;DHT22;6548;49.996;8.238;2023-11-21T12:45:29;12.10;99.90
12967;DHT22;6548;49.996;8.238;2023-11-21T12:48:01;12.20;99.90
12967;DHT22;6548;49.996;8.238;2023-11-21T12:50:30;12.20;99.90
12967;DHT22;6548;49.996;8.238;2023-11-21T12:53:01;12.30;99.90
12967;DHT22;6548;49.996;8.238;2023-11-21T12:55:32;12.30;99.90
12967;DHT22;6548;49.996;8.238;2023-11-21T12:58:02;12.50;99.90
12967;DHT22;6548;49.996;8.238;2023-11-21T13:00:44;12.50;99.90
12967;DHT22;6548;49.996;8.238;2023-11-21T13:03:12;12.50;99.90
12967;DHT22;6548;49.996;8.238;2023-11-21T13:05:41;12.50;99.90
12967;DHT22;6548;49.996;8.238;2023-11-21T13:08:16;12.60;99.90
12967;DHT22;6548;49.996;8.238;2023-11-21T13:10:45;12.60;99.90
12967;DHT22;6548;49.996;8.238;2023-11-21T13:13:14;12.60;99.90
12967;DHT22;6548;49.996;8.238;2023-11-21T13:16:00;12.70;99.90
12967;DHT22;6548;49.996;8.238;2023-11-21T13:18:32;12.60;99.90
12967;DHT22;6548;49.996;8.238;2023-11-21T13:20:59;12.50;99.90
12967;DHT22;6548;49.996;8.238;2023-11-21T13:23:26;12.50;99.90
12967;DHT22;6548;49.996;8.238;2023-11-21T13:25:52;12.50;99.90
12967;DHT22;6548;49.996;8.238;2023-11-21T13:28:19;12.50;99.90
12967;DHT22;6548;49.996;8.238;2023-11-21T13:30:46;12.60;99.90
12967;DHT22;6548;49.996;8.238;2023-11-21T13:33:13;12.50;99.90
12967;DHT22;6548;49.996;8.238;2023-11-21T13:35:43;12.50;99.90
12967;DHT22;6548;49.996;8.238;2023-11-21T13:38:17;12.40;99.90
12967;DHT22;6548;49.996;8.238;2023-11-21T13:40:47;12.10;99.90
12967;DHT22;6548;49.996;8.238;2023-11-21T13:43:19;11.90;99.90
12967;DHT22;6548;49.996;8.238;2023-11-21T13:45:46;11.90;99.90
12967;DHT22;6548;49.996;8.238;2023-11-21T13:48:13;11.80;99.90
12967;DHT22;6548;49.996;8.238;2023-11-21T13:50:45;11.70;99.90
12967;DHT22;6548;49.996;8.238;2023-11-21T13:53:21;11.80;99.90
12967;DHT22;6548;49.996;8.238;2023-11-21T13:55:54;12.00;99.90
12967;DHT22;6548;49.996;8.238;2023-11-21T13:58:20;12.20;99.90
12967;DHT22;6548;49.996;8.238;2023-11-21T14:01:00;12.20;99.90
12967;DHT22;6548;49.996;8.238;2023-11-21T14:03:27;12.40;99.90
12967;DHT22;6548;49.996;8.238;2023-11-21T14:06:05;12.50;99.90
12967;DHT22;6548;49.996;8.238;2023-11-21T14:08:40;12.50;99.90
12967;DHT22;6548;49.996;8.238;2023-11-21T14:11:05;12.40;99.90
12967;DHT22;6548;49.996;8.238;2023-11-21T14:13:32;12.50;99.90
12967;DHT22;6548;49.996;8.238;2023-11-21T14:15:57;12.40;99.90
12967;DHT22;6548;49.996;8.238;2023-11-21T14:18:25;12.30;99.90
12967;DHT22;6548;49.996;8.238;2023-11-21T14:20:56;12.10;99.90
12967;DHT22;6548;49.996;8.238;2023-11-21T14:23:22;12.10;99.90
12967;DHT22;6548;49.996;8.238;2023-11-21T14:25:48;11.90;99.90
12967;DHT22;6548;49.996;8.238;2023-11-21T14:28:15;11.80;99.90
12967;DHT22;6548;49.996;8.238;2023-11-21T14:30:41;11.70;99.90
12967;DHT22;6548;49.996;8.238;2023-11-21T14:33:08;11.60;99.90
12967;DHT22;6548;49.996;8.238;2023-11-21T14:35:35;11.60;99.90
12967;DHT22;6548;49.996;8.238;2023-11-21T14:38:01;11.50;99.90
12967;DHT22;6548;49.996;8.238;2023-11-21T14:40:28;11.40;99.90
12967;DHT22;6548;49.996;8.238;2023-11-21T14:42:59;11.30;99.90
12967;DHT22;6548;49.996;8.238;2023-11-21T14:45:24;11.30;99.90
12967;DHT22;6548;49.996;8.238;2023-11-21T14:47:51;11.20;99.90
12967;DHT22;6548;49.996;8.238;2023-11-21T14:50:33;11.30;99.90
12967;DHT22;6548;49.996;8.238;2023-11-21T14:53:12;11.30;99.90
12967;DHT22;6548;49.996;8.238;2023-11-21T14:55:41;11.10;99.90
12967;DHT22;6548;49.996;8.238;2023-11-21T14:58:06;11.10;99.90
12967;DHT22;6548;49.996;8.238;2023-11-21T15:00:37;11.00;99.90
12967;DHT22;6548;49.996;8.238;2023-11-21T15:03:04;11.00;99.90
12967;DHT22;6548;49.996;8.238;2023-11-21T15:05:30;10.90;99.90
12967;DHT22;6548;49.996;8.238;2023-11-21T15:07:55;10.90;99.90
12967;DHT22;6548;49.996;8.238;2023-11-21T15:10:24;10.80;99.90
12967;DHT22;6548;49.996;8.238;2023-11-21T15:13:11;10.80;99.90
12967;DHT22;6548;49.996;8.238;2023-11-21T15:15:36;10.80;99.90
12967;DHT22;6548;49.996;8.238;2023-11-21T15:18:03;10.70;99.90
12967;DHT22;6548;49.996;8.238;2023-11-21T15:20:28;10.70;99.90
12967;DHT22;6548;49.996;8.238;2023-11-21T15:22:55;10.70;99.90
12967;DHT22;6548;49.996;8.238;2023-11-21T15:25:21;10.60;99.90
12967;DHT22;6548;49.996;8.238;2023-11-21T15:27:47;10.60;99.90
12967;DHT22;6548;49.996;8.238;2023-11-21T15:30:15;10.60;99.90
12967;DHT22;6548;49.996;8.238;2023-11-21T15:32:41;10.60;99.90
12967;DHT22;6548;49.996;8.238;2023-11-21T15:35:07;10.60;99.90
12967;DHT22;6548;49.996;8.238;2023-11-21T15:37:36;10.50;99.90
12967;DHT22;6548;49.996;8.238;2023-11-21T15:40:01;10.50;99.90
12967;DHT22;6548;49.996;8.238;2023-11-21T15:42:31;10.50;99.90
12967;DHT22;6548;49.996;8.238;2023-11-21T15:44:57;10.50;99.90
12967;DHT22;6548;49.996;8.238;2023-11-21T15:47:22;10.50;99.90
12967;DHT22;6548;49.996;8.238;2023-11-21T15:49:48;10.50;99.90
12967;DHT22;6548;49.996;8.238;2023-11-21T15:52:13;10.40;99.90
12967;DHT22;6548;49.996;8.238;2023-11-21T15:54:40;10.40;99.90
12967;DHT22;6548;49.996;8.238;2023-11-21T15:57:05;10.40;99.90
12967;DHT22;6548;49.996;8.238;2023-11-21T15:59:31;10.40;99.90
12967;DHT22;6548;49.996;8.238;2023-11-21T16:01:58;10.40;99.90
12967;DHT22;6548;49.996;8.238;2023-11-21T16:04:24;10.40;99.90